sensor_id;sensor_type;location;lat;lon;timestamp;temperature;humidity
17687;DHT22;8962;52.538;13.266;2024-01-15T00:01:11;2.40;99.90
17687;DHT22;8962;52.538;13.266;2024-01-15T00:03:38;2.40;99.90
17687;DHT22;8962;52.538;13.266;2024-01-15T00:06:07;2.30;99.90
17687;DHT22;8962;52.538;13.266;2024-01-15T00:08:39;2.30;99.90
17687;DHT22;8962;52.538;13.266;2024-01-15T00:11:06;2.30;99.90
17687;DHT22;8962;52.538;13.266;2024-01-15T00:13:36;2.30;99.90
17687;DHT22;8962;52.538;13.266;2024-01-15T00:16:04;2.30;99.90
17687;DHT22;8962;52.538;13.266;2024-01-15T00:18:35;2.30;99.90
17687;DHT22;8962;52.538;13.266;2024-01-15T00:21:02;2.30;99.90
17687;DHT22;8962;52.538;13.266;2024-01-15T00:23:31;2.30;99.90
17687;DHT22;8962;52.538;13.266;2024-01-15T00:25:58;2.40;99.90
17687;DHT22;8962;52.538;13.266;2024-01-15T00:28:36;2.40;99.90
17687;DHT22;8962;52.538;13.266;2024-01-15T00:31:04;2.40;99.90
17687;DHT22;8962;52.538;13.266;2024-01-15T00:33:31;2.50;99.90
17687;DHT22;8962;52.538;13.266;2024-01-15T00:35:59;2.50;99.90
17687;DHT22;8962;52.538;13.266;2024-01-15T00:38:26;2.40;99.90
17687;DHT22;8962;52.538;13.266;2024-01-15T00:40:55;2.50;99.90
17687;DHT22;8962;52.538;13.266;2024-01-15T00:43:23;2.50;99.90
17687;DHT22;8962;52.538;13.266;2024-01-15T00:45:50;2.50;99.90
17687;DHT22;8962;52.538;13.266;2024-01-15T00:48:18;2.50;99.90
17687;DHT22;8962;52.538;13.266;2024-01-15T00:50:45;2.50;99.90
17687;DHT22;8962;52.538;13.266;2024-01-15T00:53:21;2.50;99.90
17687;DHT22;8962;52.538;13.266;2024-01-15T00:55:49;2.50;99.90
17687;DHT22;8962;52.538;13.266;2024-01-15T00:58:18;2.50;99.90
17687;DHT22;8962;52.538;13.266;2024-01-15T01:00:47;2.50;99.90
17687;DHT22;8962;52.538;13.266;2024-01-15T01:03:14;2.60;99.90
17687;DHT22;8962;52.538;13.266;2024-01-15T01:05:42;2.50;99.90
17687;DHT22;8962;52.538;13.266;2024-01-15T01:08:09;2.50;99.90
17687;DHT22;8962;52.538;13.266;2024-01-15T01:10:37;2.50;99.90
17687;DHT22;8962;52.538;13.266;2024-01-15T01:13:08;2.40;99.90
17687;DHT22;8962;52.538;13.266;2024-01-15T01:15:38;2.30;99.90
17687;DHT22;8962;52.538;13.266;2024-01-15T01:18:05;2.20;99.90
17687;DHT22;8962;52.538;13.266;2024-01-15T01:20:33;2.20;99.90
17687;DHT22;8962;52.538;13.266;2024-01-15T01:23:00;2.20;99.90
17687;DHT22;8962;52.538;13.266;2024-01-15T01:25:28;2.10;99.90
17687;DHT22;8962;52.538;13.266;2024-01-15T01:27:55;2.10;99.90
17687;DHT22;8962;52.538;13.266;2024-01-15T01:30:23;2.10;99.90
17687;DHT22;8962;52.538;13.266;2024-01-15T01:32:52;2.20;99.90
17687;DHT22;8962;52.538;13.266;2024-01-15T01:35:20;2.10;99.90
17687;DHT22;8962;52.538;13.266;2024-01-15T01:37:48;2.10;99.90
17687;DHT22;8962;52.538;13.266;2024-01-15T01:40:15;2.20;99.90
17687;DHT22;8962;52.538;13.266;2024-01-15T01:42:43;2.10;99.90
17687;DHT22;8962;52.538;13.266;2024-01-15T01:45:12;2.00;99.90
17687;DHT22;8962;52.538;13.266;2024-01-15T01:47:40;2.00;99.90
17687;DHT22;8962;52.538;13.266;2024-01-15T01:50:09;2.00;99.90
17687;DHT22;8962;52.538;13.266;2024-01-15T01:52:37;2.00;99.90
17687;DHT22;8962;52.538;13.266;2024-01-15T01:55:06;1.90;99.90
17687;DHT22;8962;52.538;13.266;2024-01-15T01:57:34;1.90;99.90
17687;DHT22;8962;52.538;13.266;2024-01-15T02:00:02;1.90;99.90
17687;DHT22;8962;52.538;13.266;2024-01-15T02:02:37;2.00;99.90
17687;DHT22;8962;52.538;13.266;2024-01-15T02:05:06;2.00;99.90
17687;DHT22;8962;52.538;13.266;2024-01-15T02:07:36;2.00;99.90
17687;DHT22;8962;52.538;13.266;2024-01-15T02:10:03;2.00;99.90
17687;DHT22;8962;52.538;13.266;2024-01-15T02:12:31;2.00;99.90
17687;DHT22;8962;52.538;13.266;2024-01-15T02:14:59;2.00;99.90
17687;DHT22;8962;52.538;13.266;2024-01-15T02:17:26;2.00;99.90
17687;DHT22;8962;52.538;13.266;2024-01-15T02:19:54;2.00;99.90
17687;DHT22;8962;52.538;13.266;2024-01-15T02:22:21;2.00;99.90
17687;DHT22;8962;52.538;13.266;2024-01-15T02:24:49;2.00;99.90
17687;DHT22;8962;52.538;13.266;2024-01-15T02:27:17;2.00;99.90
17687;DHT22;8962;52.538;13.266;2024-01-15T02:29:45;2.10;99.90
17687;DHT22;8962;52.538;13.266;2024-01-15T02:32:12;2.00;99.90
17687;DHT22;8962;52.538;13.266;2024-01-15T02:34:39;2.00;99.90
17687;DHT22;8962;52.538;13.266;2024-01-15T02:37:07;2.00;99.90
17687;DHT22;8962;52.538;13.266;2024-01-15T02:39:35;2.00;99.90
17687;DHT22;8962;52.538;13.266;2024-01-15T02:42:04;2.00;99.90
17687;DHT22;8962;52.538;13.266;2024-01-15T02:44:32;2.00;99.90
17687;DHT22;8962;52.538;13.266;2024-01-15T02:46:59;2.00;99.90
17687;DHT22;8962;52.538;13.266;2024-01-15T02:49:26;2.00;99.90
17687;DHT22;8962;52.538;13.266;2024-01-15T02:51:53;2.00;99.90
17687;DHT22;8962;52.538;13.266;2024-01-15T02:54:20;2.00;99.90
17687;DHT22;8962;52.538;13.266;2024-01-15T02:56:47;2.00;99.90
17687;DHT22;8962;52.538;13.266;2024-01-15T02:59:16;2.00;99.90
17687;DHT22;8962;52.538;13.266;2024-01-15T03:01:43;2.10;99.90
17687;DHT22;8962;52.538;13.266;2024-01-15T03:04:10;2.10;99.90
17687;DHT22;8962;52.538;13.266;2024-01-15T03:06:38;2.10;99.90
17687;DHT22;8962;52.538;13.266;2024-01-15T03:09:05;2.10;99.90
17687;DHT22;8962;52.538;13.266;2024-01-15T03:11:37;2.10;99.90
17687;DHT22;8962;52.538;13.266;2024-01-15T03:14:04;2.20;99.90
17687;DHT22;8962;52.538;13.266;2024-01-15T03:16:33;2.20;99.90
17687;DHT22;8962;52.538;13.266;2024-01-15T03:19:00;2.20;99.90
17687;DHT22;8962;52.538;13.266;2024-01-15T03:21:29;2.20;99.90
17687;DHT22;8962;52.538;13.266;2024-01-15T03:23:56;2.20;99.90
17687;DHT22;8962;52.538;13.266;2024-01-15T03:26:23;2.10;99.90
17687;DHT22;8962;52.538;13.266;2024-01-15T03:28:51;2.10;99.90
17687;DHT22;8962;52.538;13.266;2024-01-15T03:31:19;2.10;99.90
17687;DHT22;8962;52.538;13.266;2024-01-15T03:33:48;2.20;99.90
17687;DHT22;8962;52.538;13.266;2024-01-15T03:36:15;2.10;99.90
17687;DHT22;8962;52.538;13.266;2024-01-15T03:38:42;2.10;99.90
17687;DHT22;8962;52.538;13.266;2024-01-15T03:41:10;2.10;99.90
17687;DHT22;8962;52.538;13.266;2024-01-15T03:43:37;2.20;99.90
17687;DHT22;8962;52.538;13.266;2024-01-15T03:46:05;2.20;99.90
17687;DHT22;8962;52.538;13.266;2024-01-15T03:48:32;2.20;99.90
17687;DHT22;8962;52.538;13.266;2024-01-15T03:51:01;2.20;99.90
17687;DHT22;8962;52.538;13.266;2024-01-15T03:53:29;2.20;99.90
17687;DHT22;8962;52.538;13.266;2024-01-15T03:55:56;2.20;99.90
17687;DHT22;8962;52.538;13.266;2024-01-15T03:58:24;2.20;99.90
17687;DHT22;8962;52.538;13.266;2024-01-15T04:00:51;2.20;99.90
17687;DHT22;8962;52.538;13.266;2024-01-15T04:03:18;2.20;99.90
17687;DHT22;8962;52.538;13.266;2024-01-15T04:05:45;2.20;99.90
17687;DHT22;8962;52.538;13.266;2024-01-15T04:08:14;2.20;99.90
17687;DHT22;8962;52.538;13.266;2024-01-15T04:10:42;2.20;99.90
17687;DHT22;8962;52.538;13.266;2024-01-15T04:13:09;2.20;99.90
17687;DHT22;8962;52.538;13.266;2024-01-15T04:15:36;2.20;99.90
17687;DHT22;8962;52.538;13.266;2024-01-15T04:18:04;2.20;99.90
17687;DHT22;8962;52.538;13.266;2024-01-15T04:20:31;2.20;99.90
17687;DHT22;8962;52.538;13.266;2024-01-15T04:22:58;2.10;99.90
17687;DHT22;8962;52.538;13.266;2024-01-15T04:25:27;2.10;99.90
17687;DHT22;8962;52.538;13.266;2024-01-15T04:27:54;2.20;99.90
17687;DHT22;8962;52.538;13.266;2024-01-15T04:30:21;2.20;99.90
17687;DHT22;8962;52.538;13.266;2024-01-15T04:32:48;2.30;99.90
17687;DHT22;8962;52.538;13.266;2024-01-15T04:35:15;2.20;99.90
17687;DHT22;8962;52.538;13.266;2024-01-15T04:37:43;2.30;99.90
17687;DHT22;8962;52.538;13.266;2024-01-15T04:40:11;2.30;99.90
17687;DHT22;8962;52.538;13.266;2024-01-15T04:42:39;2.30;99.90
17687;DHT22;8962;52.538;13.266;2024-01-15T04:45:07;2.30;99.90
17687;DHT22;8962;52.538;13.266;2024-01-15T04:47:34;2.30;99.90
17687;DHT22;8962;52.538;13.266;2024-01-15T04:50:02;2.20;99.90
17687;DHT22;8962;52.538;13.266;2024-01-15T04:52:31;2.20;99.90
17687;DHT22;8962;52.538;13.266;2024-01-15T04:54:58;2.20;99.90
17687;DHT22;8962;52.538;13.266;2024-01-15T04:57:26;2.30;99.90
17687;DHT22;8962;52.538;13.266;2024-01-15T04:59:56;2.30;99.90
17687;DHT22;8962;52.538;13.266;2024-01-15T05:02:23;2.30;99.90
17687;DHT22;8962;52.538;13.266;2024-01-15T05:04:50;2.30;99.90
17687;DHT22;8962;52.538;13.266;2024-01-15T05:07:16;2.40;99.90
17687;DHT22;8962;52.538;13.266;2024-01-15T05:09:43;2.40;99.90
17687;DHT22;8962;52.538;13.266;2024-01-15T05:12:10;2.40;99.90
17687;DHT22;8962;52.538;13.266;2024-01-15T05:14:37;2.40;99.90
17687;DHT22;8962;52.538;13.266;2024-01-15T05:17:06;2.40;99.90
17687;DHT22;8962;52.538;13.266;2024-01-15T05:19:33;2.40;99.90
17687;DHT22;8962;52.538;13.266;2024-01-15T05:22:01;2.40;99.90
17687;DHT22;8962;52.538;13.266;2024-01-15T05:24:28;2.50;99.90
17687;DHT22;8962;52.538;13.266;2024-01-15T05:26:55;2.40;99.90
17687;DHT22;8962;52.538;13.266;2024-01-15T05:29:22;2.50;99.90
17687;DHT22;8962;52.538;13.266;2024-01-15T05:31:49;2.50;99.90
17687;DHT22;8962;52.538;13.266;2024-01-15T05:34:18;2.40;99.90
17687;DHT22;8962;52.538;13.266;2024-01-15T05:36:45;2.50;99.90
17687;DHT22;8962;52.538;13.266;2024-01-15T05:39:13;2.50;99.90
17687;DHT22;8962;52.538;13.266;2024-01-15T05:41:40;2.50;99.90
17687;DHT22;8962;52.538;13.266;2024-01-15T05:44:07;2.50;99.90
17687;DHT22;8962;52.538;13.266;2024-01-15T05:46:35;2.60;99.90
17687;DHT22;8962;52.538;13.266;2024-01-15T05:49:02;2.60;99.90
17687;DHT22;8962;52.538;13.266;2024-01-15T05:51:31;2.60;99.90
17687;DHT22;8962;52.538;13.266;2024-01-15T05:53:58;2.50;99.90
17687;DHT22;8962;52.538;13.266;2024-01-15T05:56:25;2.50;99.90
17687;DHT22;8962;52.538;13.266;2024-01-15T05:58:54;2.40;99.90
17687;DHT22;8962;52.538;13.266;2024-01-15T06:01:21;2.40;99.90
17687;DHT22;8962;52.538;13.266;2024-01-15T06:03:48;2.40;99.90
17687;DHT22;8962;52.538;13.266;2024-01-15T06:06:15;2.40;99.90
17687;DHT22;8962;52.538;13.266;2024-01-15T06:08:43;2.40;99.90
17687;DHT22;8962;52.538;13.266;2024-01-15T06:11:10;2.50;99.90
17687;DHT22;8962;52.538;13.266;2024-01-15T06:13:37;2.50;99.90
17687;DHT22;8962;52.538;13.266;2024-01-15T06:16:13;2.50;99.90
17687;DHT22;8962;52.538;13.266;2024-01-15T06:18:41;2.50;99.90
17687;DHT22;8962;52.538;13.266;2024-01-15T06:21:08;2.50;99.90
17687;DHT22;8962;52.538;13.266;2024-01-15T06:23:37;2.50;99.90
17687;DHT22;8962;52.538;13.266;2024-01-15T06:26:05;2.60;99.90
17687;DHT22;8962;52.538;13.266;2024-01-15T06:28:32;2.60;99.90
17687;DHT22;8962;52.538;13.266;2024-01-15T06:30:59;2.60;99.90
17687;DHT22;8962;52.538;13.266;2024-01-15T06:33:27;2.60;99.90
17687;DHT22;8962;52.538;13.266;2024-01-15T06:35:54;2.60;99.90
17687;DHT22;8962;52.538;13.266;2024-01-15T06:38:21;2.50;99.90
17687;DHT22;8962;52.538;13.266;2024-01-15T06:40:49;2.50;99.90
17687;DHT22;8962;52.538;13.266;2024-01-15T06:43:19;2.50;99.90
17687;DHT22;8962;52.538;13.266;2024-01-15T06:45:46;2.50;99.90
17687;DHT22;8962;52.538;13.266;2024-01-15T06:48:14;2.50;99.90
17687;DHT22;8962;52.538;13.266;2024-01-15T06:50:42;2.50;99.90
17687;DHT22;8962;52.538;13.266;2024-01-15T06:53:09;2.60;99.90
17687;DHT22;8962;52.538;13.266;2024-01-15T06:55:37;2.60;99.90
17687;DHT22;8962;52.538;13.266;2024-01-15T06:58:04;2.60;99.90
17687;DHT22;8962;52.538;13.266;2024-01-15T07:00:33;2.60;99.90
17687;DHT22;8962;52.538;13.266;2024-01-15T07:03:02;2.70;99.90
17687;DHT22;8962;52.538;13.266;2024-01-15T07:05:34;2.70;99.90
17687;DHT22;8962;52.538;13.266;2024-01-15T07:08:03;2.80;99.90
17687;DHT22;8962;52.538;13.266;2024-01-15T07:10:30;2.80;99.90
17687;DHT22;8962;52.538;13.266;2024-01-15T07:12:57;2.80;99.90
17687;DHT22;8962;52.538;13.266;2024-01-15T07:15:24;2.90;99.90
17687;DHT22;8962;52.538;13.266;2024-01-15T07:17:53;2.90;99.90
17687;DHT22;8962;52.538;13.266;2024-01-15T07:20:21;2.90;99.90
17687;DHT22;8962;52.538;13.266;2024-01-15T07:22:48;2.90;99.90
17687;DHT22;8962;52.538;13.266;2024-01-15T07:25:16;2.90;99.90
17687;DHT22;8962;52.538;13.266;2024-01-15T07:27:43;2.90;99.90
17687;DHT22;8962;52.538;13.266;2024-01-15T07:30:13;2.90;99.90
17687;DHT22;8962;52.538;13.266;2024-01-15T07:32:40;2.90;99.90
17687;DHT22;8962;52.538;13.266;2024-01-15T07:35:09;2.90;99.90
17687;DHT22;8962;52.538;13.266;2024-01-15T07:37:37;3.00;99.90
17687;DHT22;8962;52.538;13.266;2024-01-15T07:40:06;3.00;99.90
17687;DHT22;8962;52.538;13.266;2024-01-15T07:42:34;3.00;99.90
17687;DHT22;8962;52.538;13.266;2024-01-15T07:45:01;3.00;99.90
17687;DHT22;8962;52.538;13.266;2024-01-15T07:47:28;3.00;99.90
17687;DHT22;8962;52.538;13.266;2024-01-15T07:49:55;3.10;99.90
17687;DHT22;8962;52.538;13.266;2024-01-15T07:52:24;3.10;99.90
17687;DHT22;8962;52.538;13.266;2024-01-15T07:54:51;3.00;99.90
17687;DHT22;8962;52.538;13.266;2024-01-15T07:57:18;2.90;99.90
17687;DHT22;8962;52.538;13.266;2024-01-15T07:59:45;3.00;99.90
17687;DHT22;8962;52.538;13.266;2024-01-15T08:02:12;3.00;99.90
17687;DHT22;8962;52.538;13.266;2024-01-15T08:04:39;3.00;99.90
17687;DHT22;8962;52.538;13.266;2024-01-15T08:07:06;3.00;99.90
17687;DHT22;8962;52.538;13.266;2024-01-15T08:09:35;3.10;99.90
17687;DHT22;8962;52.538;13.266;2024-01-15T08:12:02;3.10;99.90
17687;DHT22;8962;52.538;13.266;2024-01-15T08:14:31;3.10;99.90
17687;DHT22;8962;52.538;13.266;2024-01-15T08:16:58;3.10;99.90
17687;DHT22;8962;52.538;13.266;2024-01-15T08:19:27;3.10;99.90
17687;DHT22;8962;52.538;13.266;2024-01-15T08:21:54;3.10;99.90
17687;DHT22;8962;52.538;13.266;2024-01-15T08:24:21;3.10;99.90
17687;DHT22;8962;52.538;13.266;2024-01-15T08:26:49;3.10;99.90
17687;DHT22;8962;52.538;13.266;2024-01-15T08:29:16;3.00;99.90
17687;DHT22;8962;52.538;13.266;2024-01-15T08:31:48;3.10;99.90
17687;DHT22;8962;52.538;13.266;2024-01-15T08:34:17;3.10;99.90
17687;DHT22;8962;52.538;13.266;2024-01-15T08:36:45;3.10;99.90
17687;DHT22;8962;52.538;13.266;2024-01-15T08:39:12;3.20;99.90
17687;DHT22;8962;52.538;13.266;2024-01-15T08:41:39;3.10;99.90
17687;DHT22;8962;52.538;13.266;2024-01-15T08:44:07;3.20;99.90
17687;DHT22;8962;52.538;13.266;2024-01-15T08:46:34;3.30;99.90
17687;DHT22;8962;52.538;13.266;2024-01-15T08:49:02;3.30;99.90
17687;DHT22;8962;52.538;13.266;2024-01-15T08:51:29;3.30;99.90
17687;DHT22;8962;52.538;13.266;2024-01-15T08:53:57;3.20;99.90
17687;DHT22;8962;52.538;13.266;2024-01-15T08:56:24;3.30;99.90
17687;DHT22;8962;52.538;13.266;2024-01-15T08:58:53;3.20;99.90
17687;DHT22;8962;52.538;13.266;2024-01-15T09:01:21;3.20;99.90
17687;DHT22;8962;52.538;13.266;2024-01-15T09:03:48;3.20;99.90
17687;DHT22;8962;52.538;13.266;2024-01-15T09:06:16;3.30;99.90
17687;DHT22;8962;52.538;13.266;2024-01-15T09:08:44;3.30;99.90
17687;DHT22;8962;52.538;13.266;2024-01-15T09:11:11;3.20;99.90
17687;DHT22;8962;52.538;13.266;2024-01-15T09:13:38;3.30;99.90
17687;DHT22;8962;52.538;13.266;2024-01-15T09:16:06;3.20;99.90
17687;DHT22;8962;52.538;13.266;2024-01-15T09:18:34;3.20;99.90
17687;DHT22;8962;52.538;13.266;2024-01-15T09:21:03;3.20;99.90
17687;DHT22;8962;52.538;13.266;2024-01-15T09:23:31;3.30;99.90
17687;DHT22;8962;52.538;13.266;2024-01-15T09:25:58;3.30;99.90
17687;DHT22;8962;52.538;13.266;2024-01-15T09:28:28;3.40;99.90
17687;DHT22;8962;52.538;13.266;2024-01-15T09:30:55;3.40;99.90
17687;DHT22;8962;52.538;13.266;2024-01-15T09:33:22;3.40;99.90
17687;DHT22;8962;52.538;13.266;2024-01-15T09:35:51;3.40;99.90
17687;DHT22;8962;52.538;13.266;2024-01-15T09:38:18;3.50;99.90
17687;DHT22;8962;52.538;13.266;2024-01-15T09:40:45;3.40;99.90
17687;DHT22;8962;52.538;13.266;2024-01-15T09:43:14;3.50;99.90
17687;DHT22;8962;52.538;13.266;2024-01-15T09:45:41;3.40;99.90
17687;DHT22;8962;52.538;13.266;2024-01-15T09:48:09;3.40;99.90
17687;DHT22;8962;52.538;13.266;2024-01-15T09:50:36;3.40;99.90
17687;DHT22;8962;52.538;13.266;2024-01-15T09:53:06;3.40;99.90
17687;DHT22;8962;52.538;13.266;2024-01-15T09:55:33;3.40;99.90
17687;DHT22;8962;52.538;13.266;2024-01-15T09:58:00;3.50;99.90
17687;DHT22;8962;52.538;13.266;2024-01-15T10:00:29;3.50;99.90
17687;DHT22;8962;52.538;13.266;2024-01-15T10:02:57;3.50;99.90
17687;DHT22;8962;52.538;13.266;2024-01-15T10:05:26;3.50;99.90
17687;DHT22;8962;52.538;13.266;2024-01-15T10:07:54;3.60;99.90
17687;DHT22;8962;52.538;13.266;2024-01-15T10:10:25;3.60;99.90
17687;DHT22;8962;52.538;13.266;2024-01-15T10:12:52;3.60;99.90
17687;DHT22;8962;52.538;13.266;2024-01-15T10:15:22;3.60;99.90
17687;DHT22;8962;52.538;13.266;2024-01-15T10:17:52;3.60;99.90
17687;DHT22;8962;52.538;13.266;2024-01-15T10:20:20;3.80;99.90
17687;DHT22;8962;52.538;13.266;2024-01-15T10:22:50;3.80;99.90
17687;DHT22;8962;52.538;13.266;2024-01-15T10:25:20;3.80;99.90
17687;DHT22;8962;52.538;13.266;2024-01-15T10:28:03;3.80;99.90
17687;DHT22;8962;52.538;13.266;2024-01-15T10:30:32;3.90;99.90
17687;DHT22;8962;52.538;13.266;2024-01-15T10:33:00;4.00;99.90
17687;DHT22;8962;52.538;13.266;2024-01-15T10:35:29;3.90;99.90
17687;DHT22;8962;52.538;13.266;2024-01-15T10:37:56;3.80;99.90
17687;DHT22;8962;52.538;13.266;2024-01-15T10:40:24;3.70;99.90
17687;DHT22;8962;52.538;13.266;2024-01-15T10:42:52;3.70;99.90
17687;DHT22;8962;52.538;13.266;2024-01-15T10:45:23;3.70;99.90
17687;DHT22;8962;52.538;13.266;2024-01-15T10:47:53;3.70;99.90
17687;DHT22;8962;52.538;13.266;2024-01-15T10:50:29;3.70;99.90
17687;DHT22;8962;52.538;13.266;2024-01-15T10:53:01;3.70;99.90
17687;DHT22;8962;52.538;13.266;2024-01-15T10:55:33;3.70;99.90
17687;DHT22;8962;52.538;13.266;2024-01-15T10:58:11;3.50;99.90
17687;DHT22;8962;52.538;13.266;2024-01-15T11:00:43;3.60;99.90
17687;DHT22;8962;52.538;13.266;2024-01-15T11:03:35;3.70;99.90
17687;DHT22;8962;52.538;13.266;2024-01-15T11:06:16;3.90;99.90
17687;DHT22;8962;52.538;13.266;2024-01-15T11:08:46;3.80;99.90
17687;DHT22;8962;52.538;13.266;2024-01-15T11:11:16;3.80;99.90
17687;DHT22;8962;52.538;13.266;2024-01-15T11:13:46;3.70;99.90
17687;DHT22;8962;52.538;13.266;2024-01-15T11:16:20;3.70;99.90
17687;DHT22;8962;52.538;13.266;2024-01-15T11:19:04;3.60;99.90
17687;DHT22;8962;52.538;13.266;2024-01-15T11:21:42;3.60;99.90
17687;DHT22;8962;52.538;13.266;2024-01-15T11:24:10;3.50;99.90
17687;DHT22;8962;52.538;13.266;2024-01-15T11:26:44;3.40;99.90
17687;DHT22;8962;52.538;13.266;2024-01-15T11:29:29;3.40;99.90
17687;DHT22;8962;52.538;13.266;2024-01-15T11:32:01;3.40;99.90
17687;DHT22;8962;52.538;13.266;2024-01-15T11:34:52;3.30;99.90
17687;DHT22;8962;52.538;13.266;2024-01-15T11:37:26;3.30;99.90
17687;DHT22;8962;52.538;13.266;2024-01-15T11:39:54;3.30;99.90
17687;DHT22;8962;52.538;13.266;2024-01-15T11:42:23;3.20;99.90
17687;DHT22;8962;52.538;13.266;2024-01-15T11:44:50;3.20;99.90
17687;DHT22;8962;52.538;13.266;2024-01-15T11:50:31;2.90;99.90
17687;DHT22;8962;52.538;13.266;2024-01-15T11:53:01;2.80;99.90
17687;DHT22;8962;52.538;13.266;2024-01-15T11:55:33;2.70;99.90
17687;DHT22;8962;52.538;13.266;2024-01-15T11:58:02;2.70;99.90
17687;DHT22;8962;52.538;13.266;2024-01-15T12:00:40;2.70;99.90
17687;DHT22;8962;52.538;13.266;2024-01-15T12:03:11;2.70;99.90
17687;DHT22;8962;52.538;13.266;2024-01-15T12:05:48;2.70;99.90
17687;DHT22;8962;52.538;13.266;2024-01-15T12:08:21;2.70;99.90
17687;DHT22;8962;52.538;13.266;2024-01-15T12:10:50;2.80;99.90
17687;DHT22;8962;52.538;13.266;2024-01-15T12:13:21;2.70;99.90
17687;DHT22;8962;52.538;13.266;2024-01-15T12:15:48;2.80;99.90
17687;DHT22;8962;52.538;13.266;2024-01-15T12:18:17;2.80;99.90
17687;DHT22;8962;52.538;13.266;2024-01-15T12:20:50;2.80;99.90
17687;DHT22;8962;52.538;13.266;2024-01-15T12:23:21;2.80;99.90
17687;DHT22;8962;52.538;13.266;2024-01-15T12:25:49;2.80;99.90
17687;DHT22;8962;52.538;13.266;2024-01-15T12:28:18;2.80;99.90
17687;DHT22;8962;52.538;13.266;2024-01-15T12:30:47;2.80;99.90
17687;DHT22;8962;52.538;13.266;2024-01-15T12:33:18;2.80;99.90
17687;DHT22;8962;52.538;13.266;2024-01-15T12:35:47;2.80;99.90
17687;DHT22;8962;52.538;13.266;2024-01-15T12:38:14;2.80;99.90
17687;DHT22;8962;52.538;13.266;2024-01-15T12:40:44;2.70;99.90
17687;DHT22;8962;52.538;13.266;2024-01-15T12:43:12;2.50;99.90
17687;DHT22;8962;52.538;13.266;2024-01-15T12:45:40;2.40;99.90
17687;DHT22;8962;52.538;13.266;2024-01-15T12:48:09;2.30;99.90
17687;DHT22;8962;52.538;13.266;2024-01-15T12:50:36;2.30;99.90
17687;DHT22;8962;52.538;13.266;2024-01-15T12:53:04;2.30;99.90
17687;DHT22;8962;52.538;13.266;2024-01-15T12:55:32;2.30;99.90
17687;DHT22;8962;52.538;13.266;2024-01-15T12:58:00;2.40;99.90
17687;DHT22;8962;52.538;13.266;2024-01-15T13:00:27;2.40;99.90
17687;DHT22;8962;52.538;13.266;2024-01-15T13:02:54;2.40;99.90
17687;DHT22;8962;52.538;13.266;2024-01-15T13:05:23;2.40;99.90
17687;DHT22;8962;52.538;13.266;2024-01-15T13:07:50;2.40;99.90
17687;DHT22;8962;52.538;13.266;2024-01-15T13:10:20;2.40;99.90
17687;DHT22;8962;52.538;13.266;2024-01-15T13:12:47;2.40;99.90
17687;DHT22;8962;52.538;13.266;2024-01-15T13:15:17;2.40;99.90
17687;DHT22;8962;52.538;13.266;2024-01-15T13:17:44;2.50;99.90
17687;DHT22;8962;52.538;13.266;2024-01-15T13:20:12;2.50;99.90
17687;DHT22;8962;52.538;13.266;2024-01-15T13:22:40;2.50;99.90
17687;DHT22;8962;52.538;13.266;2024-01-15T13:25:10;2.50;99.90
17687;DHT22;8962;52.538;13.266;2024-01-15T13:27:39;2.50;99.90
17687;DHT22;8962;52.538;13.266;2024-01-15T13:30:07;2.50;99.90
17687;DHT22;8962;52.538;13.266;2024-01-15T13:32:35;2.50;99.90
17687;DHT22;8962;52.538;13.266;2024-01-15T13:35:03;2.50;99.90
17687;DHT22;8962;52.538;13.266;2024-01-15T13:37:35;2.50;99.90
17687;DHT22;8962;52.538;13.266;2024-01-15T13:40:03;2.50;99.90
17687;DHT22;8962;52.538;13.266;2024-01-15T13:42:33;2.50;99.90
17687;DHT22;8962;52.538;13.266;2024-01-15T13:45:03;2.50;99.90
17687;DHT22;8962;52.538;13.266;2024-01-15T13:47:31;2.50;99.90
17687;DHT22;8962;52.538;13.266;2024-01-15T13:49:58;2.50;99.90
17687;DHT22;8962;52.538;13.266;2024-01-15T13:52:26;2.60;99.90
17687;DHT22;8962;52.538;13.266;2024-01-15T13:54:53;2.60;99.90
17687;DHT22;8962;52.538;13.266;2024-01-15T13:57:20;2.60;99.90
17687;DHT22;8962;52.538;13.266;2024-01-15T13:59:48;2.60;99.90
17687;DHT22;8962;52.538;13.266;2024-01-15T14:02:17;2.60;99.90
17687;DHT22;8962;52.538;13.266;2024-01-15T14:04:45;2.60;99.90
17687;DHT22;8962;52.538;13.266;2024-01-15T14:07:12;2.60;99.90
17687;DHT22;8962;52.538;13.266;2024-01-15T14:09:41;2.60;99.90
17687;DHT22;8962;52.538;13.266;2024-01-15T14:12:08;2.60;99.90
17687;DHT22;8962;52.538;13.266;2024-01-15T14:14:35;2.60;99.90
17687;DHT22;8962;52.538;13.266;2024-01-15T14:17:02;2.60;99.90
17687;DHT22;8962;52.538;13.266;2024-01-15T14:19:31;2.60;99.90
17687;DHT22;8962;52.538;13.266;2024-01-15T14:21:59;2.60;99.90
17687;DHT22;8962;52.538;13.266;2024-01-15T14:24:26;2.60;99.90
17687;DHT22;8962;52.538;13.266;2024-01-15T14:26:53;2.60;99.90
17687;DHT22;8962;52.538;13.266;2024-01-15T14:29:20;2.60;99.90
17687;DHT22;8962;52.538;13.266;2024-01-15T14:31:50;2.60;99.90
17687;DHT22;8962;52.538;13.266;2024-01-15T14:34:18;2.60;99.90
17687;DHT22;8962;52.538;13.266;2024-01-15T14:36:49;2.60;99.90
17687;DHT22;8962;52.538;13.266;2024-01-15T14:39:24;2.60;99.90
17687;DHT22;8962;52.538;13.266;2024-01-15T14:41:59;2.60;99.90
17687;DHT22;8962;52.538;13.266;2024-01-15T14:44:27;2.50;99.90
17687;DHT22;8962;52.538;13.266;2024-01-15T14:46:55;2.40;99.90
17687;DHT22;8962;52.538;13.266;2024-01-15T14:49:24;2.50;99.90
17687;DHT22;8962;52.538;13.266;2024-01-15T14:51:53;2.40;99.90
17687;DHT22;8962;52.538;13.266;2024-01-15T14:54:20;2.40;99.90
17687;DHT22;8962;52.538;13.266;2024-01-15T14:56:47;2.40;99.90
17687;DHT22;8962;52.538;13.266;2024-01-15T14:59:15;2.40;99.90
17687;DHT22;8962;52.538;13.266;2024-01-15T15:01:42;2.40;99.90
17687;DHT22;8962;52.538;13.266;2024-01-15T15:04:09;2.40;99.90
17687;DHT22;8962;52.538;13.266;2024-01-15T15:06:36;2.40;99.90
17687;DHT22;8962;52.538;13.266;2024-01-15T15:09:05;2.30;99.90
17687;DHT22;8962;52.538;13.266;2024-01-15T15:11:37;2.30;99.90
17687;DHT22;8962;52.538;13.266;2024-01-15T15:14:04;2.30;99.90
17687;DHT22;8962;52.538;13.266;2024-01-15T15:16:31;2.30;99.90
17687;DHT22;8962;52.538;13.266;2024-01-15T15:18:58;2.30;99.90
17687;DHT22;8962;52.538;13.266;2024-01-15T15:21:26;2.30;99.90
17687;DHT22;8962;52.538;13.266;2024-01-15T15:23:54;2.20;99.90
17687;DHT22;8962;52.538;13.266;2024-01-15T15:26:23;2.30;99.90
17687;DHT22;8962;52.538;13.266;2024-01-15T15:28:50;2.20;99.90
17687;DHT22;8962;52.538;13.266;2024-01-15T15:31:20;2.10;99.90
17687;DHT22;8962;52.538;13.266;2024-01-15T15:33:47;2.10;99.90
17687;DHT22;8962;52.538;13.266;2024-01-15T15:36:14;2.10;99.90
17687;DHT22;8962;52.538;13.266;2024-01-15T15:38:42;2.00;99.90
17687;DHT22;8962;52.538;13.266;2024-01-15T15:41:09;2.00;99.90
17687;DHT22;8962;52.538;13.266;2024-01-15T15:43:38;1.90;99.90
17687;DHT22;8962;52.538;13.266;2024-01-15T15:46:06;1.90;99.90
17687;DHT22;8962;52.538;13.266;2024-01-15T15:48:34;1.80;99.90
17687;DHT22;8962;52.538;13.266;2024-01-15T15:51:01;1.80;99.90
17687;DHT22;8962;52.538;13.266;2024-01-15T15:53:29;1.80;99.90
17687;DHT22;8962;52.538;13.266;2024-01-15T15:55:56;1.90;99.90